sensor_id;sensor_type;location;lat;lon;timestamp;P1;durP1;ratioP1;P2;durP2;ratioP2
47009;SDS011;59230;54.164;-3.124;2023-10-09T00:00:09;93.07;;;26.30;;
47009;SDS011;59230;54.164;-3.124;2023-10-09T00:02:54;82.70;;;24.50;;
47009;SDS011;59230;54.164;-3.124;2023-10-09T00:05:21;81.90;;;23.55;;
47009;SDS011;59230;54.164;-3.124;2023-10-09T00:07:59;94.07;;;24.77;;
47009;SDS011;59230;54.164;-3.124;2023-10-09T00:10:25;71.40;;;21.52;;
47009;SDS011;59230;54.164;-3.124;2023-10-09T00:13:00;70.90;;;21.40;;
47009;SDS011;59230;54.164;-3.124;2023-10-09T00:15:25;77.30;;;21.27;;
47009;SDS011;59230;54.164;-3.124;2023-10-09T00:17:52;82.68;;;23.00;;
47009;SDS011;59230;54.164;-3.124;2023-10-09T00:20:22;79.88;;;22.88;;
47009;SDS011;59230;54.164;-3.124;2023-10-09T00:22:51;88.28;;;23.10;;
47009;SDS011;59230;54.164;-3.124;2023-10-09T00:25:17;65.25;;;21.38;;
47009;SDS011;59230;54.164;-3.124;2023-10-09T00:27:51;82.05;;;22.42;;
47009;SDS011;59230;54.164;-3.124;2023-10-09T00:30:17;91.68;;;22.90;;
47009;SDS011;59230;54.164;-3.124;2023-10-09T00:32:44;78.35;;;20.50;;
47009;SDS011;59230;54.164;-3.124;2023-10-09T00:35:30;87.68;;;21.80;;
47009;SDS011;59230;54.164;-3.124;2023-10-09T00:38:16;86.43;;;20.40;;
47009;SDS011;59230;54.164;-3.124;2023-10-09T00:40:46;85.50;;;20.63;;
47009;SDS011;59230;54.164;-3.124;2023-10-09T00:43:50;94.43;;;21.15;;
47009;SDS011;59230;54.164;-3.124;2023-10-09T00:46:26;87.72;;;18.35;;
47009;SDS011;59230;54.164;-3.124;2023-10-09T00:48:56;73.45;;;18.88;;
47009;SDS011;59230;54.164;-3.124;2023-10-09T00:51:31;80.65;;;19.58;;
47009;SDS011;59230;54.164;-3.124;2023-10-09T00:54:01;71.60;;;18.48;;
47009;SDS011;59230;54.164;-3.124;2023-10-09T00:56:34;91.27;;;19.57;;
47009;SDS011;59230;54.164;-3.124;2023-10-09T00:59:07;91.63;;;21.25;;
47009;SDS011;59230;54.164;-3.124;2023-10-09T01:01:35;92.72;;;20.85;;
47009;SDS011;59230;54.164;-3.124;2023-10-09T01:04:06;83.38;;;19.20;;
47009;SDS011;59230;54.164;-3.124;2023-10-09T01:06:38;80.22;;;21.83;;
47009;SDS011;59230;54.164;-3.124;2023-10-09T01:09:15;71.32;;;19.38;;
47009;SDS011;59230;54.164;-3.124;2023-10-09T01:11:47;72.50;;;21.30;;
47009;SDS011;59230;54.164;-3.124;2023-10-09T01:14:15;80.68;;;21.70;;
47009;SDS011;59230;54.164;-3.124;2023-10-09T01:16:51;99.10;;;23.95;;
47009;SDS011;59230;54.164;-3.124;2023-10-09T01:21:57;89.28;;;22.73;;
47009;SDS011;59230;54.164;-3.124;2023-10-09T01:24:40;84.80;;;23.95;;
47009;SDS011;59230;54.164;-3.124;2023-10-09T01:27:09;78.72;;;23.63;;
47009;SDS011;59230;54.164;-3.124;2023-10-09T01:29:44;111.30;;;26.10;;
47009;SDS011;59230;54.164;-3.124;2023-10-09T01:32:11;78.65;;;23.63;;
47009;SDS011;59230;54.164;-3.124;2023-10-09T01:34:45;63.95;;;21.60;;
47009;SDS011;59230;54.164;-3.124;2023-10-09T01:37:20;84.32;;;23.65;;
47009;SDS011;59230;54.164;-3.124;2023-10-09T01:39:48;90.70;;;24.02;;
47009;SDS011;59230;54.164;-3.124;2023-10-09T01:42:17;70.35;;;19.77;;
47009;SDS011;59230;54.164;-3.124;2023-10-09T01:44:56;76.07;;;23.48;;
47009;SDS011;59230;54.164;-3.124;2023-10-09T01:47:49;93.32;;;24.77;;
47009;SDS011;59230;54.164;-3.124;2023-10-09T01:50:22;81.13;;;23.90;;
47009;SDS011;59230;54.164;-3.124;2023-10-09T01:52:56;72.75;;;23.50;;
47009;SDS011;59230;54.164;-3.124;2023-10-09T01:55:26;85.45;;;25.63;;
47009;SDS011;59230;54.164;-3.124;2023-10-09T01:58:05;92.95;;;27.27;;
47009;SDS011;59230;54.164;-3.124;2023-10-09T02:00:46;74.07;;;26.30;;
47009;SDS011;59230;54.164;-3.124;2023-10-09T02:03:25;80.57;;;27.17;;
47009;SDS011;59230;54.164;-3.124;2023-10-09T02:05:56;76.45;;;26.92;;
47009;SDS011;59230;54.164;-3.124;2023-10-09T02:08:26;94.80;;;27.63;;
47009;SDS011;59230;54.164;-3.124;2023-10-09T02:11:02;86.78;;;25.45;;
47009;SDS011;59230;54.164;-3.124;2023-10-09T02:13:33;70.35;;;23.83;;
47009;SDS011;59230;54.164;-3.124;2023-10-09T02:15:59;77.55;;;23.50;;
47009;SDS011;59230;54.164;-3.124;2023-10-09T02:18:55;82.68;;;22.75;;
47009;SDS011;59230;54.164;-3.124;2023-10-09T02:21:24;67.28;;;23.88;;
47009;SDS011;59230;54.164;-3.124;2023-10-09T02:24:09;78.43;;;24.20;;
47009;SDS011;59230;54.164;-3.124;2023-10-09T02:26:51;81.15;;;23.42;;
47009;SDS011;59230;54.164;-3.124;2023-10-09T02:29:18;72.43;;;22.48;;
47009;SDS011;59230;54.164;-3.124;2023-10-09T02:31:49;71.00;;;22.92;;
47009;SDS011;59230;54.164;-3.124;2023-10-09T02:34:21;77.65;;;23.70;;
47009;SDS011;59230;54.164;-3.124;2023-10-09T02:36:52;76.80;;;23.70;;
47009;SDS011;59230;54.164;-3.124;2023-10-09T02:39:32;66.93;;;23.90;;
47009;SDS011;59230;54.164;-3.124;2023-10-09T02:42:11;71.32;;;23.73;;
47009;SDS011;59230;54.164;-3.124;2023-10-09T02:44:41;85.30;;;25.50;;
47009;SDS011;59230;54.164;-3.124;2023-10-09T02:47:26;83.22;;;25.98;;
47009;SDS011;59230;54.164;-3.124;2023-10-09T02:50:08;78.30;;;27.05;;
47009;SDS011;59230;54.164;-3.124;2023-10-09T02:52:37;88.30;;;26.52;;
47009;SDS011;59230;54.164;-3.124;2023-10-09T02:55:06;78.13;;;27.27;;
47009;SDS011;59230;54.164;-3.124;2023-10-09T03:00:07;74.57;;;24.15;;
47009;SDS011;59230;54.164;-3.124;2023-10-09T03:02:44;63.67;;;21.48;;
47009;SDS011;59230;54.164;-3.124;2023-10-09T03:05:16;65.30;;;21.85;;
47009;SDS011;59230;54.164;-3.124;2023-10-09T03:07:43;67.93;;;20.23;;
47009;SDS011;59230;54.164;-3.124;2023-10-09T03:10:11;55.45;;;21.27;;
47009;SDS011;59230;54.164;-3.124;2023-10-09T03:12:36;63.58;;;20.30;;
47009;SDS011;59230;54.164;-3.124;2023-10-09T03:15:08;59.38;;;19.17;;
47009;SDS011;59230;54.164;-3.124;2023-10-09T03:17:34;63.50;;;19.85;;
47009;SDS011;59230;54.164;-3.124;2023-10-09T03:20:08;54.10;;;19.10;;
47009;SDS011;59230;54.164;-3.124;2023-10-09T03:25:10;56.90;;;19.08;;
47009;SDS011;59230;54.164;-3.124;2023-10-09T03:27:48;57.38;;;18.67;;
47009;SDS011;59230;54.164;-3.124;2023-10-09T03:30:16;73.53;;;21.00;;
47009;SDS011;59230;54.164;-3.124;2023-10-09T03:32:52;59.45;;;19.77;;
47009;SDS011;59230;54.164;-3.124;2023-10-09T03:35:22;74.80;;;21.45;;
47009;SDS011;59230;54.164;-3.124;2023-10-09T03:37:57;57.83;;;18.70;;
47009;SDS011;59230;54.164;-3.124;2023-10-09T03:40:36;57.40;;;19.15;;
47009;SDS011;59230;54.164;-3.124;2023-10-09T03:43:14;51.70;;;18.63;;
47009;SDS011;59230;54.164;-3.124;2023-10-09T03:45:41;66.93;;;19.20;;
47009;SDS011;59230;54.164;-3.124;2023-10-09T03:48:19;51.90;;;17.88;;
47009;SDS011;59230;54.164;-3.124;2023-10-09T03:50:55;53.17;;;18.75;;
47009;SDS011;59230;54.164;-3.124;2023-10-09T03:53:40;51.45;;;19.55;;
47009;SDS011;59230;54.164;-3.124;2023-10-09T03:56:08;56.42;;;17.90;;
47009;SDS011;59230;54.164;-3.124;2023-10-09T03:58:46;50.38;;;17.85;;
47009;SDS011;59230;54.164;-3.124;2023-10-09T04:01:16;54.05;;;18.42;;
47009;SDS011;59230;54.164;-3.124;2023-10-09T04:03:57;49.85;;;17.58;;
47009;SDS011;59230;54.164;-3.124;2023-10-09T04:06:28;58.70;;;16.73;;
47009;SDS011;59230;54.164;-3.124;2023-10-09T04:09:02;45.20;;;15.80;;
47009;SDS011;59230;54.164;-3.124;2023-10-09T04:11:57;56.53;;;15.70;;
47009;SDS011;59230;54.164;-3.124;2023-10-09T04:14:48;49.63;;;14.75;;
47009;SDS011;59230;54.164;-3.124;2023-10-09T04:17:24;40.88;;;13.63;;
47009;SDS011;59230;54.164;-3.124;2023-10-09T04:20:02;48.97;;;14.88;;
47009;SDS011;59230;54.164;-3.124;2023-10-09T04:22:47;56.22;;;14.50;;
47009;SDS011;59230;54.164;-3.124;2023-10-09T04:25:36;47.17;;;15.48;;
47009;SDS011;59230;54.164;-3.124;2023-10-09T04:28:15;50.60;;;14.43;;
47009;SDS011;59230;54.164;-3.124;2023-10-09T04:30:42;51.17;;;14.80;;
47009;SDS011;59230;54.164;-3.124;2023-10-09T04:33:34;56.00;;;16.27;;
47009;SDS011;59230;54.164;-3.124;2023-10-09T04:36:09;50.25;;;16.48;;
47009;SDS011;59230;54.164;-3.124;2023-10-09T04:38:56;62.97;;;16.58;;
47009;SDS011;59230;54.164;-3.124;2023-10-09T04:41:31;47.35;;;15.38;;
47009;SDS011;59230;54.164;-3.124;2023-10-09T04:44:22;61.15;;;16.38;;
47009;SDS011;59230;54.164;-3.124;2023-10-09T04:47:10;61.25;;;16.38;;
47009;SDS011;59230;54.164;-3.124;2023-10-09T04:49:42;71.63;;;17.38;;
47009;SDS011;59230;54.164;-3.124;2023-10-09T04:52:18;61.08;;;15.90;;
47009;SDS011;59230;54.164;-3.124;2023-10-09T04:54:53;56.28;;;15.95;;
47009;SDS011;59230;54.164;-3.124;2023-10-09T04:57:40;54.65;;;16.88;;
47009;SDS011;59230;54.164;-3.124;2023-10-09T05:00:34;48.95;;;17.17;;
47009;SDS011;59230;54.164;-3.124;2023-10-09T05:03:00;55.60;;;15.65;;
47009;SDS011;59230;54.164;-3.124;2023-10-09T05:05:36;70.32;;;17.60;;
47009;SDS011;59230;54.164;-3.124;2023-10-09T05:08:16;70.57;;;17.48;;
47009;SDS011;59230;54.164;-3.124;2023-10-09T05:13:26;64.65;;;18.15;;
47009;SDS011;59230;54.164;-3.124;2023-10-09T05:16:23;55.97;;;17.05;;
47009;SDS011;59230;54.164;-3.124;2023-10-09T05:18:55;48.65;;;17.15;;
47009;SDS011;59230;54.164;-3.124;2023-10-09T05:24:10;65.15;;;17.55;;
47009;SDS011;59230;54.164;-3.124;2023-10-09T05:26:43;65.22;;;16.58;;
47009;SDS011;59230;54.164;-3.124;2023-10-09T05:29:16;55.75;;;16.60;;
47009;SDS011;59230;54.164;-3.124;2023-10-09T05:32:06;64.22;;;16.70;;
47009;SDS011;59230;54.164;-3.124;2023-10-09T05:34:42;62.88;;;17.60;;
47009;SDS011;59230;54.164;-3.124;2023-10-09T05:37:25;62.65;;;15.75;;
47009;SDS011;59230;54.164;-3.124;2023-10-09T05:39:58;62.65;;;15.52;;
47009;SDS011;59230;54.164;-3.124;2023-10-09T05:42:49;49.72;;;14.90;;
47009;SDS011;59230;54.164;-3.124;2023-10-09T05:45:38;55.22;;;16.05;;
47009;SDS011;59230;54.164;-3.124;2023-10-09T05:48:32;51.97;;;14.70;;
47009;SDS011;59230;54.164;-3.124;2023-10-09T05:51:04;50.50;;;14.48;;
47009;SDS011;59230;54.164;-3.124;2023-10-09T05:53:36;57.67;;;14.73;;
47009;SDS011;59230;54.164;-3.124;2023-10-09T05:56:14;51.22;;;15.93;;
47009;SDS011;59230;54.164;-3.124;2023-10-09T05:58:58;49.20;;;16.95;;
47009;SDS011;59230;54.164;-3.124;2023-10-09T06:01:43;59.65;;;17.35;;
47009;SDS011;59230;54.164;-3.124;2023-10-09T06:04:28;67.03;;;17.08;;
47009;SDS011;59230;54.164;-3.124;2023-10-09T06:07:21;59.63;;;16.48;;
47009;SDS011;59230;54.164;-3.124;2023-10-09T06:10:08;47.10;;;16.13;;
47009;SDS011;59230;54.164;-3.124;2023-10-09T06:12:47;38.92;;;14.77;;
47009;SDS011;59230;54.164;-3.124;2023-10-09T06:15:24;44.17;;;15.98;;
47009;SDS011;59230;54.164;-3.124;2023-10-09T06:18:10;44.00;;;14.90;;
47009;SDS011;59230;54.164;-3.124;2023-10-09T06:20:56;55.17;;;16.60;;
47009;SDS011;59230;54.164;-3.124;2023-10-09T06:23:32;49.78;;;15.50;;
47009;SDS011;59230;54.164;-3.124;2023-10-09T06:26:35;50.10;;;14.75;;
47009;SDS011;59230;54.164;-3.124;2023-10-09T06:29:00;37.75;;;13.85;;
47009;SDS011;59230;54.164;-3.124;2023-10-09T06:31:59;53.08;;;13.95;;
47009;SDS011;59230;54.164;-3.124;2023-10-09T06:34:47;55.65;;;14.43;;
47009;SDS011;59230;54.164;-3.124;2023-10-09T06:37:41;52.45;;;14.70;;
47009;SDS011;59230;54.164;-3.124;2023-10-09T06:43:03;53.60;;;14.73;;
47009;SDS011;59230;54.164;-3.124;2023-10-09T06:45:42;47.50;;;14.55;;
47009;SDS011;59230;54.164;-3.124;2023-10-09T06:48:13;39.33;;;14.80;;
47009;SDS011;59230;54.164;-3.124;2023-10-09T06:51:18;46.13;;;13.90;;
47009;SDS011;59230;54.164;-3.124;2023-10-09T06:53:56;57.65;;;14.63;;
47009;SDS011;59230;54.164;-3.124;2023-10-09T06:56:25;48.45;;;14.30;;
47009;SDS011;59230;54.164;-3.124;2023-10-09T06:58:58;53.58;;;15.02;;
47009;SDS011;59230;54.164;-3.124;2023-10-09T07:01:29;51.95;;;15.38;;
47009;SDS011;59230;54.164;-3.124;2023-10-09T07:04:13;59.20;;;14.82;;
47009;SDS011;59230;54.164;-3.124;2023-10-09T07:07:07;48.70;;;14.27;;
47009;SDS011;59230;54.164;-3.124;2023-10-09T07:09:36;50.92;;;14.40;;
47009;SDS011;59230;54.164;-3.124;2023-10-09T07:12:21;50.72;;;14.90;;
47009;SDS011;59230;54.164;-3.124;2023-10-09T07:14:54;44.85;;;14.93;;
47009;SDS011;59230;54.164;-3.124;2023-10-09T07:17:20;56.85;;;15.32;;
47009;SDS011;59230;54.164;-3.124;2023-10-09T07:20:00;50.70;;;14.82;;
47009;SDS011;59230;54.164;-3.124;2023-10-09T07:22:41;44.03;;;14.38;;
47009;SDS011;59230;54.164;-3.124;2023-10-09T07:25:41;56.78;;;16.13;;
47009;SDS011;59230;54.164;-3.124;2023-10-09T07:28:23;60.65;;;17.23;;
47009;SDS011;59230;54.164;-3.124;2023-10-09T07:31:18;52.67;;;16.40;;
47009;SDS011;59230;54.164;-3.124;2023-10-09T07:33:54;51.97;;;16.23;;
47009;SDS011;59230;54.164;-3.124;2023-10-09T07:36:23;62.70;;;19.10;;
47009;SDS011;59230;54.164;-3.124;2023-10-09T07:39:16;50.78;;;16.80;;
47009;SDS011;59230;54.164;-3.124;2023-10-09T07:41:42;61.53;;;18.42;;
47009;SDS011;59230;54.164;-3.124;2023-10-09T07:44:24;59.22;;;17.02;;
47009;SDS011;59230;54.164;-3.124;2023-10-09T07:47:03;52.88;;;18.52;;
47009;SDS011;59230;54.164;-3.124;2023-10-09T07:49:44;54.45;;;16.33;;
47009;SDS011;59230;54.164;-3.124;2023-10-09T07:54:48;56.63;;;17.38;;
47009;SDS011;59230;54.164;-3.124;2023-10-09T07:57:28;64.00;;;18.50;;
47009;SDS011;59230;54.164;-3.124;2023-10-09T08:00:03;63.97;;;18.98;;
47009;SDS011;59230;54.164;-3.124;2023-10-09T08:02:59;50.50;;;17.20;;
47009;SDS011;59230;54.164;-3.124;2023-10-09T08:05:25;62.05;;;17.08;;
47009;SDS011;59230;54.164;-3.124;2023-10-09T08:08:00;58.42;;;17.88;;
47009;SDS011;59230;54.164;-3.124;2023-10-09T08:10:44;57.05;;;17.40;;
47009;SDS011;59230;54.164;-3.124;2023-10-09T08:13:30;62.58;;;19.42;;
47009;SDS011;59230;54.164;-3.124;2023-10-09T08:16:14;53.67;;;17.73;;
47009;SDS011;59230;54.164;-3.124;2023-10-09T08:18:47;54.80;;;18.25;;
47009;SDS011;59230;54.164;-3.124;2023-10-09T08:21:18;62.17;;;17.10;;
47009;SDS011;59230;54.164;-3.124;2023-10-09T08:24:07;55.65;;;18.33;;
47009;SDS011;59230;54.164;-3.124;2023-10-09T08:26:53;56.55;;;18.02;;
47009;SDS011;59230;54.164;-3.124;2023-10-09T08:29:41;52.70;;;16.98;;
47009;SDS011;59230;54.164;-3.124;2023-10-09T08:32:12;54.28;;;17.77;;
47009;SDS011;59230;54.164;-3.124;2023-10-09T08:34:46;52.10;;;17.23;;
47009;SDS011;59230;54.164;-3.124;2023-10-09T08:37:21;53.35;;;18.63;;
47009;SDS011;59230;54.164;-3.124;2023-10-09T08:39:50;58.10;;;18.50;;
47009;SDS011;59230;54.164;-3.124;2023-10-09T08:42:15;60.80;;;17.77;;
47009;SDS011;59230;54.164;-3.124;2023-10-09T08:44:41;46.47;;;17.15;;
47009;SDS011;59230;54.164;-3.124;2023-10-09T08:50:02;50.65;;;17.05;;
47009;SDS011;59230;54.164;-3.124;2023-10-09T08:52:38;45.95;;;17.23;;
47009;SDS011;59230;54.164;-3.124;2023-10-09T08:55:05;53.55;;;16.60;;
47009;SDS011;59230;54.164;-3.124;2023-10-09T08:57:31;43.60;;;15.80;;
47009;SDS011;59230;54.164;-3.124;2023-10-09T08:59:58;41.67;;;16.20;;
47009;SDS011;59230;54.164;-3.124;2023-10-09T09:02:26;55.45;;;20.50;;
47009;SDS011;59230;54.164;-3.124;2023-10-09T09:04:53;49.83;;;16.95;;
47009;SDS011;59230;54.164;-3.124;2023-10-09T09:07:27;39.95;;;15.30;;
47009;SDS011;59230;54.164;-3.124;2023-10-09T09:10:00;38.72;;;14.85;;
47009;SDS011;59230;54.164;-3.124;2023-10-09T09:12:47;47.45;;;15.20;;
47009;SDS011;59230;54.164;-3.124;2023-10-09T09:15:42;51.15;;;15.25;;
47009;SDS011;59230;54.164;-3.124;2023-10-09T09:18:12;39.20;;;14.93;;
47009;SDS011;59230;54.164;-3.124;2023-10-09T09:20:42;41.20;;;14.40;;
47009;SDS011;59230;54.164;-3.124;2023-10-09T09:23:11;46.65;;;15.25;;
47009;SDS011;59230;54.164;-3.124;2023-10-09T09:25:42;61.95;;;16.33;;
47009;SDS011;59230;54.164;-3.124;2023-10-09T09:28:16;51.55;;;15.30;;
47009;SDS011;59230;54.164;-3.124;2023-10-09T09:30:49;51.72;;;16.90;;
47009;SDS011;59230;54.164;-3.124;2023-10-09T09:33:26;40.88;;;16.55;;
47009;SDS011;59230;54.164;-3.124;2023-10-09T09:38:41;53.00;;;17.80;;
47009;SDS011;59230;54.164;-3.124;2023-10-09T09:41:19;50.60;;;15.98;;
47009;SDS011;59230;54.164;-3.124;2023-10-09T09:43:55;48.83;;;16.55;;
47009;SDS011;59230;54.164;-3.124;2023-10-09T09:46:26;38.00;;;14.43;;
47009;SDS011;59230;54.164;-3.124;2023-10-09T09:49:05;42.08;;;13.90;;
47009;SDS011;59230;54.164;-3.124;2023-10-09T09:51:32;43.45;;;13.00;;
47009;SDS011;59230;54.164;-3.124;2023-10-09T09:53:58;45.67;;;12.13;;
47009;SDS011;59230;54.164;-3.124;2023-10-09T09:56:24;34.72;;;12.23;;
47009;SDS011;59230;54.164;-3.124;2023-10-09T09:58:51;42.78;;;11.90;;
47009;SDS011;59230;54.164;-3.124;2023-10-09T10:01:25;37.42;;;10.48;;
47009;SDS011;59230;54.164;-3.124;2023-10-09T10:04:09;36.03;;;11.32;;
47009;SDS011;59230;54.164;-3.124;2023-10-09T10:06:45;31.83;;;10.43;;
47009;SDS011;59230;54.164;-3.124;2023-10-09T10:12:06;29.30;;;9.88;;
47009;SDS011;59230;54.164;-3.124;2023-10-09T10:15:00;34.28;;;10.93;;
47009;SDS011;59230;54.164;-3.124;2023-10-09T10:18:14;36.15;;;10.45;;
47009;SDS011;59230;54.164;-3.124;2023-10-09T10:20:59;52.20;;;11.52;;
47009;SDS011;59230;54.164;-3.124;2023-10-09T10:27:25;31.73;;;10.98;;
47009;SDS011;59230;54.164;-3.124;2023-10-09T10:32:57;42.25;;;12.07;;
47009;SDS011;59230;54.164;-3.124;2023-10-09T10:35:41;32.35;;;11.88;;
47009;SDS011;59230;54.164;-3.124;2023-10-09T10:46:12;37.42;;;11.63;;
47009;SDS011;59230;54.164;-3.124;2023-10-09T10:48:58;42.28;;;12.70;;
47009;SDS011;59230;54.164;-3.124;2023-10-09T10:51:29;36.13;;;12.55;;
47009;SDS011;59230;54.164;-3.124;2023-10-09T10:54:02;47.03;;;13.00;;
47009;SDS011;59230;54.164;-3.124;2023-10-09T10:56:47;41.92;;;12.55;;
47009;SDS011;59230;54.164;-3.124;2023-10-09T10:59:18;40.28;;;12.18;;
47009;SDS011;59230;54.164;-3.124;2023-10-09T11:01:51;42.72;;;12.07;;
47009;SDS011;59230;54.164;-3.124;2023-10-09T11:04:20;35.70;;;12.45;;
47009;SDS011;59230;54.164;-3.124;2023-10-09T11:07:05;43.55;;;13.50;;
47009;SDS011;59230;54.164;-3.124;2023-10-09T11:10:01;45.22;;;14.63;;
47009;SDS011;59230;54.164;-3.124;2023-10-09T11:15:30;40.72;;;13.43;;
47009;SDS011;59230;54.164;-3.124;2023-10-09T11:18:12;45.00;;;14.40;;
47009;SDS011;59230;54.164;-3.124;2023-10-09T11:20:53;36.58;;;12.00;;
47009;SDS011;59230;54.164;-3.124;2023-10-09T11:23:43;48.72;;;14.73;;
47009;SDS011;59230;54.164;-3.124;2023-10-09T11:26:24;39.17;;;13.60;;
47009;SDS011;59230;54.164;-3.124;2023-10-09T11:29:09;45.42;;;14.95;;
47009;SDS011;59230;54.164;-3.124;2023-10-09T11:34:27;43.65;;;13.00;;
47009;SDS011;59230;54.164;-3.124;2023-10-09T11:37:02;48.78;;;14.32;;
47009;SDS011;59230;54.164;-3.124;2023-10-09T11:39:38;39.22;;;13.13;;
47009;SDS011;59230;54.164;-3.124;2023-10-09T11:42:20;45.60;;;12.15;;
47009;SDS011;59230;54.164;-3.124;2023-10-09T11:45:19;37.63;;;11.85;;
47009;SDS011;59230;54.164;-3.124;2023-10-09T11:47:55;35.25;;;12.18;;
47009;SDS011;59230;54.164;-3.124;2023-10-09T11:53:41;43.72;;;13.25;;
47009;SDS011;59230;54.164;-3.124;2023-10-09T11:56:30;33.40;;;12.80;;
47009;SDS011;59230;54.164;-3.124;2023-10-09T11:58:59;44.42;;;11.80;;
47009;SDS011;59230;54.164;-3.124;2023-10-09T12:01:29;41.63;;;12.65;;
47009;SDS011;59230;54.164;-3.124;2023-10-09T12:04:01;32.30;;;12.25;;
47009;SDS011;59230;54.164;-3.124;2023-10-09T12:06:27;38.88;;;13.32;;
47009;SDS011;59230;54.164;-3.124;2023-10-09T12:08:57;32.78;;;11.68;;
47009;SDS011;59230;54.164;-3.124;2023-10-09T12:11:25;40.42;;;12.70;;
47009;SDS011;59230;54.164;-3.124;2023-10-09T12:13:58;43.15;;;12.50;;
47009;SDS011;59230;54.164;-3.124;2023-10-09T12:16:26;46.20;;;13.25;;
47009;SDS011;59230;54.164;-3.124;2023-10-09T12:18:53;38.65;;;11.18;;
47009;SDS011;59230;54.164;-3.124;2023-10-09T12:21:20;43.22;;;12.50;;
47009;SDS011;59230;54.164;-3.124;2023-10-09T12:23:46;45.90;;;12.48;;
47009;SDS011;59230;54.164;-3.124;2023-10-09T12:26:27;33.40;;;11.77;;
47009;SDS011;59230;54.164;-3.124;2023-10-09T12:28:52;30.35;;;11.60;;
47009;SDS011;59230;54.164;-3.124;2023-10-09T12:31:18;35.50;;;13.65;;
47009;SDS011;59230;54.164;-3.124;2023-10-09T12:33:45;37.75;;;13.13;;
47009;SDS011;59230;54.164;-3.124;2023-10-09T12:36:18;32.05;;;11.95;;
47009;SDS011;59230;54.164;-3.124;2023-10-09T12:38:45;38.00;;;12.88;;
47009;SDS011;59230;54.164;-3.124;2023-10-09T13:18:45;27.30;;;12.88;;
47009;SDS011;59230;54.164;-3.124;2023-10-09T13:21:36;29.23;;;13.25;;
47009;SDS011;59230;54.164;-3.124;2023-10-09T13:24:05;34.30;;;14.63;;
47009;SDS011;59230;54.164;-3.124;2023-10-09T13:26:44;36.70;;;14.10;;
47009;SDS011;59230;54.164;-3.124;2023-10-09T13:29:13;35.25;;;14.27;;
47009;SDS011;59230;54.164;-3.124;2023-10-09T13:31:50;31.67;;;13.27;;
47009;SDS011;59230;54.164;-3.124;2023-10-09T13:34:24;30.30;;;12.50;;
47009;SDS011;59230;54.164;-3.124;2023-10-09T13:36:54;29.25;;;12.32;;
47009;SDS011;59230;54.164;-3.124;2023-10-09T13:39:22;27.65;;;12.55;;
47009;SDS011;59230;54.164;-3.124;2023-10-09T13:44:38;22.73;;;11.80;;
47009;SDS011;59230;54.164;-3.124;2023-10-09T13:47:09;22.60;;;11.05;;
47009;SDS011;59230;54.164;-3.124;2023-10-09T13:49:46;20.77;;;10.40;;
47009;SDS011;59230;54.164;-3.124;2023-10-09T13:52:20;33.22;;;11.77;;
47009;SDS011;59230;54.164;-3.124;2023-10-09T13:54:47;27.52;;;10.50;;
47009;SDS011;59230;54.164;-3.124;2023-10-09T13:57:15;24.15;;;9.95;;
47009;SDS011;59230;54.164;-3.124;2023-10-09T13:59:42;16.83;;;8.27;;
47009;SDS011;59230;54.164;-3.124;2023-10-09T14:02:23;28.33;;;9.70;;
47009;SDS011;59230;54.164;-3.124;2023-10-09T14:04:57;27.92;;;10.40;;
47009;SDS011;59230;54.164;-3.124;2023-10-09T14:07:26;20.15;;;9.15;;
47009;SDS011;59230;54.164;-3.124;2023-10-09T14:09:54;22.27;;;8.40;;
47009;SDS011;59230;54.164;-3.124;2023-10-09T14:12:21;18.42;;;7.60;;
47009;SDS011;59230;54.164;-3.124;2023-10-09T14:14:48;18.00;;;8.38;;
47009;SDS011;59230;54.164;-3.124;2023-10-09T14:17:16;14.63;;;7.80;;
47009;SDS011;59230;54.164;-3.124;2023-10-09T14:19:52;16.48;;;7.78;;
47009;SDS011;59230;54.164;-3.124;2023-10-09T14:22:27;16.20;;;8.50;;
47009;SDS011;59230;54.164;-3.124;2023-10-09T14:24:56;16.02;;;7.93;;
47009;SDS011;59230;54.164;-3.124;2023-10-09T14:27:27;15.75;;;7.65;;
47009;SDS011;59230;54.164;-3.124;2023-10-09T14:30:00;20.23;;;8.43;;
47009;SDS011;59230;54.164;-3.124;2023-10-09T14:32:27;16.58;;;8.60;;
47009;SDS011;59230;54.164;-3.124;2023-10-09T14:35:11;13.90;;;7.82;;
47009;SDS011;59230;54.164;-3.124;2023-10-09T14:37:42;16.65;;;7.80;;
47009;SDS011;59230;54.164;-3.124;2023-10-09T14:40:11;13.68;;;6.32;;
47009;SDS011;59230;54.164;-3.124;2023-10-09T14:42:40;13.90;;;7.05;;
47009;SDS011;59230;54.164;-3.124;2023-10-09T14:45:11;11.93;;;6.60;;
47009;SDS011;59230;54.164;-3.124;2023-10-09T14:47:44;12.40;;;6.93;;
47009;SDS011;59230;54.164;-3.124;2023-10-09T14:50:13;13.88;;;6.13;;
47009;SDS011;59230;54.164;-3.124;2023-10-09T14:52:40;17.17;;;7.55;;
47009;SDS011;59230;54.164;-3.124;2023-10-09T14:55:06;16.83;;;8.38;;
47009;SDS011;59230;54.164;-3.124;2023-10-09T14:57:33;15.07;;;7.80;;
47009;SDS011;59230;54.164;-3.124;2023-10-09T14:59:59;15.75;;;7.75;;
47009;SDS011;59230;54.164;-3.124;2023-10-09T15:02:27;19.40;;;7.60;;
47009;SDS011;59230;54.164;-3.124;2023-10-09T15:04:52;14.07;;;7.00;;
47009;SDS011;59230;54.164;-3.124;2023-10-09T15:07:18;13.95;;;7.13;;
47009;SDS011;59230;54.164;-3.124;2023-10-09T15:09:48;15.35;;;7.65;;
47009;SDS011;59230;54.164;-3.124;2023-10-09T15:12:16;19.05;;;6.90;;
47009;SDS011;59230;54.164;-3.124;2023-10-09T15:14:44;12.82;;;7.13;;
47009;SDS011;59230;54.164;-3.124;2023-10-09T15:17:11;15.60;;;7.10;;
47009;SDS011;59230;54.164;-3.124;2023-10-09T15:19:38;13.05;;;6.88;;
47009;SDS011;59230;54.164;-3.124;2023-10-09T15:22:03;14.35;;;6.88;;
47009;SDS011;59230;54.164;-3.124;2023-10-09T15:24:37;18.40;;;7.57;;
47009;SDS011;59230;54.164;-3.124;2023-10-09T15:27:03;17.00;;;7.88;;
47009;SDS011;59230;54.164;-3.124;2023-10-09T15:29:34;16.33;;;7.55;;
47009;SDS011;59230;54.164;-3.124;2023-10-09T15:32:03;13.00;;;7.00;;
47009;SDS011;59230;54.164;-3.124;2023-10-09T15:34:41;16.88;;;6.65;;
47009;SDS011;59230;54.164;-3.124;2023-10-09T15:37:06;17.90;;;6.60;;
47009;SDS011;59230;54.164;-3.124;2023-10-09T15:39:35;15.77;;;6.95;;
47009;SDS011;59230;54.164;-3.124;2023-10-09T15:42:01;13.20;;;6.03;;
47009;SDS011;59230;54.164;-3.124;2023-10-09T15:44:34;18.15;;;6.60;;
47009;SDS011;59230;54.164;-3.124;2023-10-09T15:47:04;11.10;;;5.10;;
47009;SDS011;59230;54.164;-3.124;2023-10-09T15:49:33;18.73;;;6.82;;
47009;SDS011;59230;54.164;-3.124;2023-10-09T15:52:01;13.68;;;6.00;;
47009;SDS011;59230;54.164;-3.124;2023-10-09T15:54:27;11.85;;;5.45;;
47009;SDS011;59230;54.164;-3.124;2023-10-09T15:56:56;10.50;;;5.95;;
47009;SDS011;59230;54.164;-3.124;2023-10-09T15:59:24;13.63;;;6.18;;
47009;SDS011;59230;54.164;-3.124;2023-10-09T16:01:53;13.35;;;7.00;;
47009;SDS011;59230;54.164;-3.124;2023-10-09T16:04:19;12.82;;;6.47;;
47009;SDS011;59230;54.164;-3.124;2023-10-09T16:06:46;15.55;;;7.80;;
47009;SDS011;59230;54.164;-3.124;2023-10-09T16:09:13;15.20;;;7.72;;
47009;SDS011;59230;54.164;-3.124;2023-10-09T16:11:49;18.17;;;7.85;;
47009;SDS011;59230;54.164;-3.124;2023-10-09T16:14:15;16.45;;;6.95;;
47009;SDS011;59230;54.164;-3.124;2023-10-09T16:16:41;14.32;;;6.45;;
47009;SDS011;59230;54.164;-3.124;2023-10-09T16:19:11;13.45;;;5.93;;
47009;SDS011;59230;54.164;-3.124;2023-10-09T16:21:39;11.88;;;6.65;;
47009;SDS011;59230;54.164;-3.124;2023-10-09T16:24:08;18.33;;;6.95;;
47009;SDS011;59230;54.164;-3.124;2023-10-09T16:26:36;16.20;;;8.13;;